sensor_id;sensor_type;location;lat;lon;timestamp;temperature;humidity
29547;DHT22;40782;47.264;11.330;2023-03-14T00:01:13;12.80;99.90
29547;DHT22;40782;47.264;11.330;2023-03-14T00:03:40;12.80;99.90
29547;DHT22;40782;47.264;11.330;2023-03-14T00:06:07;12.90;99.90
29547;DHT22;40782;47.264;11.330;2023-03-14T00:08:36;12.90;99.90
29547;DHT22;40782;47.264;11.330;2023-03-14T00:11:04;12.90;99.90
29547;DHT22;40782;47.264;11.330;2023-03-14T00:13:31;12.90;99.90
29547;DHT22;40782;47.264;11.330;2023-03-14T00:16:01;12.90;99.90
29547;DHT22;40782;47.264;11.330;2023-03-14T00:18:28;12.90;99.90
29547;DHT22;40782;47.264;11.330;2023-03-14T00:20:57;12.90;99.90
29547;DHT22;40782;47.264;11.330;2023-03-14T00:23:24;12.90;99.90
29547;DHT22;40782;47.264;11.330;2023-03-14T00:25:53;12.80;99.90
29547;DHT22;40782;47.264;11.330;2023-03-14T00:28:20;12.90;99.90
29547;DHT22;40782;47.264;11.330;2023-03-14T00:30:47;12.80;99.90
29547;DHT22;40782;47.264;11.330;2023-03-14T00:33:14;12.90;99.90
29547;DHT22;40782;47.264;11.330;2023-03-14T00:35:41;12.80;99.90
29547;DHT22;40782;47.264;11.330;2023-03-14T00:38:08;12.80;99.90
29547;DHT22;40782;47.264;11.330;2023-03-14T00:40:38;12.90;99.90
29547;DHT22;40782;47.264;11.330;2023-03-14T00:43:07;12.90;99.90
29547;DHT22;40782;47.264;11.330;2023-03-14T00:45:34;12.90;99.90
29547;DHT22;40782;47.264;11.330;2023-03-14T00:48:01;12.90;99.90
29547;DHT22;40782;47.264;11.330;2023-03-14T00:50:28;12.90;99.90
29547;DHT22;40782;47.264;11.330;2023-03-14T00:52:55;12.80;99.90
29547;DHT22;40782;47.264;11.330;2023-03-14T00:55:22;12.80;99.90
29547;DHT22;40782;47.264;11.330;2023-03-14T00:57:49;12.80;99.90
29547;DHT22;40782;47.264;11.330;2023-03-14T01:00:18;12.80;99.90
29547;DHT22;40782;47.264;11.330;2023-03-14T01:02:45;12.90;99.90
29547;DHT22;40782;47.264;11.330;2023-03-14T01:05:12;12.70;99.90
29547;DHT22;40782;47.264;11.330;2023-03-14T01:07:39;12.30;99.90
29547;DHT22;40782;47.264;11.330;2023-03-14T01:10:07;12.00;99.90
29547;DHT22;40782;47.264;11.330;2023-03-14T01:12:34;11.70;99.90
29547;DHT22;40782;47.264;11.330;2023-03-14T01:15:01;11.40;99.90
29547;DHT22;40782;47.264;11.330;2023-03-14T01:17:30;11.00;99.90
29547;DHT22;40782;47.264;11.330;2023-03-14T01:19:57;10.80;99.90
29547;DHT22;40782;47.264;11.330;2023-03-14T01:22:24;10.50;99.90
29547;DHT22;40782;47.264;11.330;2023-03-14T01:24:51;10.50;99.90
29547;DHT22;40782;47.264;11.330;2023-03-14T01:27:18;10.30;99.90
29547;DHT22;40782;47.264;11.330;2023-03-14T01:29:45;10.20;99.90
29547;DHT22;40782;47.264;11.330;2023-03-14T01:32:12;10.20;99.90
29547;DHT22;40782;47.264;11.330;2023-03-14T01:34:41;10.10;99.90
29547;DHT22;40782;47.264;11.330;2023-03-14T01:37:08;10.10;99.90
29547;DHT22;40782;47.264;11.330;2023-03-14T01:39:37;10.10;99.90
29547;DHT22;40782;47.264;11.330;2023-03-14T01:42:04;10.10;99.90
29547;DHT22;40782;47.264;11.330;2023-03-14T01:44:46;10.10;99.90
29547;DHT22;40782;47.264;11.330;2023-03-14T01:47:13;10.00;99.90
29547;DHT22;40782;47.264;11.330;2023-03-14T01:49:41;9.90;99.90
29547;DHT22;40782;47.264;11.330;2023-03-14T01:52:10;9.90;99.90
29547;DHT22;40782;47.264;11.330;2023-03-14T01:54:38;9.80;99.90
29547;DHT22;40782;47.264;11.330;2023-03-14T01:57:08;9.80;99.90
29547;DHT22;40782;47.264;11.330;2023-03-14T01:59:35;9.70;99.90
29547;DHT22;40782;47.264;11.330;2023-03-14T02:02:04;9.80;99.90
29547;DHT22;40782;47.264;11.330;2023-03-14T02:04:33;9.80;99.90
29547;DHT22;40782;47.264;11.330;2023-03-14T02:07:05;9.90;99.90
29547;DHT22;40782;47.264;11.330;2023-03-14T02:09:35;9.90;99.90
29547;DHT22;40782;47.264;11.330;2023-03-14T02:12:03;9.90;99.90
29547;DHT22;40782;47.264;11.330;2023-03-14T02:14:30;9.90;99.90
29547;DHT22;40782;47.264;11.330;2023-03-14T02:16:58;9.90;99.90
29547;DHT22;40782;47.264;11.330;2023-03-14T02:19:30;9.80;99.90
29547;DHT22;40782;47.264;11.330;2023-03-14T02:22:00;9.80;99.90
29547;DHT22;40782;47.264;11.330;2023-03-14T02:24:32;9.70;99.90
29547;DHT22;40782;47.264;11.330;2023-03-14T02:27:04;9.70;99.90
29547;DHT22;40782;47.264;11.330;2023-03-14T02:29:31;9.70;99.90
29547;DHT22;40782;47.264;11.330;2023-03-14T02:31:58;9.60;99.90
29547;DHT22;40782;47.264;11.330;2023-03-14T02:34:25;9.60;99.90
29547;DHT22;40782;47.264;11.330;2023-03-14T02:36:53;9.60;99.90
29547;DHT22;40782;47.264;11.330;2023-03-14T02:39:21;9.60;99.90
29547;DHT22;40782;47.264;11.330;2023-03-14T02:41:51;9.50;99.90
29547;DHT22;40782;47.264;11.330;2023-03-14T02:44:19;9.50;99.90
29547;DHT22;40782;47.264;11.330;2023-03-14T02:46:46;9.50;99.90
29547;DHT22;40782;47.264;11.330;2023-03-14T02:49:14;9.40;99.90
29547;DHT22;40782;47.264;11.330;2023-03-14T02:51:41;9.40;99.90
29547;DHT22;40782;47.264;11.330;2023-03-14T02:54:10;9.40;99.90
29547;DHT22;40782;47.264;11.330;2023-03-14T02:56:37;9.40;99.90
29547;DHT22;40782;47.264;11.330;2023-03-14T02:59:04;9.30;99.90
29547;DHT22;40782;47.264;11.330;2023-03-14T03:01:34;9.20;99.90
29547;DHT22;40782;47.264;11.330;2023-03-14T03:04:01;9.20;99.90
29547;DHT22;40782;47.264;11.330;2023-03-14T03:06:28;9.20;99.90
29547;DHT22;40782;47.264;11.330;2023-03-14T03:08:55;9.20;99.90
29547;DHT22;40782;47.264;11.330;2023-03-14T03:11:22;9.20;99.90
29547;DHT22;40782;47.264;11.330;2023-03-14T03:13:49;9.10;99.90
29547;DHT22;40782;47.264;11.330;2023-03-14T03:16:16;9.10;99.90
29547;DHT22;40782;47.264;11.330;2023-03-14T03:18:45;9.10;99.90
29547;DHT22;40782;47.264;11.330;2023-03-14T03:21:12;9.10;1.00
29547;DHT22;40782;47.264;11.330;2023-03-14T03:23:39;9.10;1.00
29547;DHT22;40782;47.264;11.330;2023-03-14T03:26:06;9.00;1.00
29547;DHT22;40782;47.264;11.330;2023-03-14T03:28:33;9.00;1.00
29547;DHT22;40782;47.264;11.330;2023-03-14T03:31:06;9.00;23.20
29547;DHT22;40782;47.264;11.330;2023-03-14T03:33:33;9.00;99.90
29547;DHT22;40782;47.264;11.330;2023-03-14T03:36:01;9.00;99.90
29547;DHT22;40782;47.264;11.330;2023-03-14T03:38:28;8.90;1.00
29547;DHT22;40782;47.264;11.330;2023-03-14T03:40:55;8.80;99.90
29547;DHT22;40782;47.264;11.330;2023-03-14T03:43:23;8.70;1.00
29547;DHT22;40782;47.264;11.330;2023-03-14T03:45:50;8.60;18.70
29547;DHT22;40782;47.264;11.330;2023-03-14T03:48:17;8.50;1.00
29547;DHT22;40782;47.264;11.330;2023-03-14T03:50:44;8.40;1.00
29547;DHT22;40782;47.264;11.330;2023-03-14T03:53:13;8.30;7.00
29547;DHT22;40782;47.264;11.330;2023-03-14T03:55:40;8.20;99.90
29547;DHT22;40782;47.264;11.330;2023-03-14T03:58:07;8.20;89.50
29547;DHT22;40782;47.264;11.330;2023-03-14T04:00:34;8.10;99.90
29547;DHT22;40782;47.264;11.330;2023-03-14T04:03:01;8.00;1.00
29547;DHT22;40782;47.264;11.330;2023-03-14T04:05:28;8.00;1.00
29547;DHT22;40782;47.264;11.330;2023-03-14T04:07:55;8.00;1.00
29547;DHT22;40782;47.264;11.330;2023-03-14T04:10:24;8.00;1.00
29547;DHT22;40782;47.264;11.330;2023-03-14T04:12:51;7.90;1.00
29547;DHT22;40782;47.264;11.330;2023-03-14T04:15:18;7.90;1.00
29547;DHT22;40782;47.264;11.330;2023-03-14T04:17:45;7.90;1.00
29547;DHT22;40782;47.264;11.330;2023-03-14T04:20:12;7.80;1.00
29547;DHT22;40782;47.264;11.330;2023-03-14T04:22:40;7.80;1.00
29547;DHT22;40782;47.264;11.330;2023-03-14T04:25:07;7.80;1.00
29547;DHT22;40782;47.264;11.330;2023-03-14T04:27:36;7.80;18.70
29547;DHT22;40782;47.264;11.330;2023-03-14T04:30:03;7.80;27.80
29547;DHT22;40782;47.264;11.330;2023-03-14T04:32:32;7.80;34.50
29547;DHT22;40782;47.264;11.330;2023-03-14T04:34:59;7.80;34.80
29547;DHT22;40782;47.264;11.330;2023-03-14T04:37:26;7.80;46.60
29547;DHT22;40782;47.264;11.330;2023-03-14T04:39:53;7.80;49.10
29547;DHT22;40782;47.264;11.330;2023-03-14T04:42:20;7.80;62.60
29547;DHT22;40782;47.264;11.330;2023-03-14T04:44:48;7.80;81.20
29547;DHT22;40782;47.264;11.330;2023-03-14T04:47:16;7.80;91.40
29547;DHT22;40782;47.264;11.330;2023-03-14T04:49:43;7.70;97.70
29547;DHT22;40782;47.264;11.330;2023-03-14T04:52:10;7.70;99.90
29547;DHT22;40782;47.264;11.330;2023-03-14T04:54:37;7.70;99.90
29547;DHT22;40782;47.264;11.330;2023-03-14T04:57:04;7.70;99.90
29547;DHT22;40782;47.264;11.330;2023-03-14T04:59:31;7.60;99.90
29547;DHT22;40782;47.264;11.330;2023-03-14T05:01:59;7.70;99.90
29547;DHT22;40782;47.264;11.330;2023-03-14T05:04:26;7.70;99.90
29547;DHT22;40782;47.264;11.330;2023-03-14T05:06:53;7.70;99.90
29547;DHT22;40782;47.264;11.330;2023-03-14T05:09:20;7.80;99.90
29547;DHT22;40782;47.264;11.330;2023-03-14T05:11:47;7.80;99.90
29547;DHT22;40782;47.264;11.330;2023-03-14T05:14:14;7.80;99.90
29547;DHT22;40782;47.264;11.330;2023-03-14T05:16:42;7.70;99.90
29547;DHT22;40782;47.264;11.330;2023-03-14T05:19:11;7.70;99.90
29547;DHT22;40782;47.264;11.330;2023-03-14T05:21:38;7.80;99.90
29547;DHT22;40782;47.264;11.330;2023-03-14T05:24:05;7.80;99.90
29547;DHT22;40782;47.264;11.330;2023-03-14T05:26:32;7.90;99.90
29547;DHT22;40782;47.264;11.330;2023-03-14T05:28:59;7.90;99.90
29547;DHT22;40782;47.264;11.330;2023-03-14T05:31:26;8.00;99.90
29547;DHT22;40782;47.264;11.330;2023-03-14T05:33:53;7.90;99.90
29547;DHT22;40782;47.264;11.330;2023-03-14T05:36:21;7.80;99.90
29547;DHT22;40782;47.264;11.330;2023-03-14T05:38:48;7.80;99.90
29547;DHT22;40782;47.264;11.330;2023-03-14T05:41:15;7.80;99.90
29547;DHT22;40782;47.264;11.330;2023-03-14T05:43:42;7.60;99.90
29547;DHT22;40782;47.264;11.330;2023-03-14T05:46:10;7.60;99.90
29547;DHT22;40782;47.264;11.330;2023-03-14T05:48:37;7.50;99.90
29547;DHT22;40782;47.264;11.330;2023-03-14T05:51:04;7.60;99.90
29547;DHT22;40782;47.264;11.330;2023-03-14T05:53:33;7.50;99.90
29547;DHT22;40782;47.264;11.330;2023-03-14T05:56:00;7.50;99.90
29547;DHT22;40782;47.264;11.330;2023-03-14T05:58:27;7.50;99.90
29547;DHT22;40782;47.264;11.330;2023-03-14T06:00:54;7.50;99.90
29547;DHT22;40782;47.264;11.330;2023-03-14T06:03:21;7.50;99.90
29547;DHT22;40782;47.264;11.330;2023-03-14T06:05:49;7.40;99.90
29547;DHT22;40782;47.264;11.330;2023-03-14T06:08:16;7.50;99.90
29547;DHT22;40782;47.264;11.330;2023-03-14T06:10:44;7.40;99.90
29547;DHT22;40782;47.264;11.330;2023-03-14T06:13:11;7.30;99.90
29547;DHT22;40782;47.264;11.330;2023-03-14T06:15:38;7.30;99.90
29547;DHT22;40782;47.264;11.330;2023-03-14T06:18:05;7.30;99.90
29547;DHT22;40782;47.264;11.330;2023-03-14T06:20:33;7.20;99.90
29547;DHT22;40782;47.264;11.330;2023-03-14T06:23:00;7.20;99.90
29547;DHT22;40782;47.264;11.330;2023-03-14T06:25:28;7.20;99.90
29547;DHT22;40782;47.264;11.330;2023-03-14T06:27:56;7.20;99.90
29547;DHT22;40782;47.264;11.330;2023-03-14T06:30:23;7.10;99.90
29547;DHT22;40782;47.264;11.330;2023-03-14T06:32:50;7.00;99.90
29547;DHT22;40782;47.264;11.330;2023-03-14T06:35:17;6.90;93.60
29547;DHT22;40782;47.264;11.330;2023-03-14T06:37:44;7.00;99.90
29547;DHT22;40782;47.264;11.330;2023-03-14T06:40:12;6.90;94.70
29547;DHT22;40782;47.264;11.330;2023-03-14T06:42:42;6.90;88.20
29547;DHT22;40782;47.264;11.330;2023-03-14T06:45:10;6.90;76.20
29547;DHT22;40782;47.264;11.330;2023-03-14T06:47:37;6.80;60.00
29547;DHT22;40782;47.264;11.330;2023-03-14T06:50:05;6.80;46.50
29547;DHT22;40782;47.264;11.330;2023-03-14T06:52:33;6.80;42.20
29547;DHT22;40782;47.264;11.330;2023-03-14T06:55:00;6.70;38.50
29547;DHT22;40782;47.264;11.330;2023-03-14T06:57:27;6.70;48.90
29547;DHT22;40782;47.264;11.330;2023-03-14T06:59:54;6.70;66.90
29547;DHT22;40782;47.264;11.330;2023-03-14T07:02:22;6.70;78.20
29547;DHT22;40782;47.264;11.330;2023-03-14T07:04:50;6.70;76.80
29547;DHT22;40782;47.264;11.330;2023-03-14T07:07:17;6.60;85.30
29547;DHT22;40782;47.264;11.330;2023-03-14T07:09:44;6.60;94.80
29547;DHT22;40782;47.264;11.330;2023-03-14T07:12:11;6.60;98.20
29547;DHT22;40782;47.264;11.330;2023-03-14T07:14:38;6.60;99.90
29547;DHT22;40782;47.264;11.330;2023-03-14T07:17:05;6.60;99.90
29547;DHT22;40782;47.264;11.330;2023-03-14T07:19:33;6.70;99.90
29547;DHT22;40782;47.264;11.330;2023-03-14T07:22:00;6.60;99.90
29547;DHT22;40782;47.264;11.330;2023-03-14T07:24:27;6.60;99.90
29547;DHT22;40782;47.264;11.330;2023-03-14T07:26:54;6.60;99.90
29547;DHT22;40782;47.264;11.330;2023-03-14T07:29:21;6.60;99.90
29547;DHT22;40782;47.264;11.330;2023-03-14T07:31:49;6.60;99.90
29547;DHT22;40782;47.264;11.330;2023-03-14T07:34:16;6.60;99.90
29547;DHT22;40782;47.264;11.330;2023-03-14T07:36:46;6.60;99.90
29547;DHT22;40782;47.264;11.330;2023-03-14T07:39:13;6.60;99.90
29547;DHT22;40782;47.264;11.330;2023-03-14T07:41:40;6.60;99.90
29547;DHT22;40782;47.264;11.330;2023-03-14T07:44:07;6.50;99.90
29547;DHT22;40782;47.264;11.330;2023-03-14T07:46:34;6.50;99.90
29547;DHT22;40782;47.264;11.330;2023-03-14T07:49:01;6.50;99.90
29547;DHT22;40782;47.264;11.330;2023-03-14T07:51:29;6.50;99.90
29547;DHT22;40782;47.264;11.330;2023-03-14T07:53:57;6.50;99.90
29547;DHT22;40782;47.264;11.330;2023-03-14T07:56:24;6.50;99.90
29547;DHT22;40782;47.264;11.330;2023-03-14T07:58:51;6.50;96.00
29547;DHT22;40782;47.264;11.330;2023-03-14T08:01:18;6.50;93.80
29547;DHT22;40782;47.264;11.330;2023-03-14T08:03:45;6.40;70.70
29547;DHT22;40782;47.264;11.330;2023-03-14T08:06:12;6.40;48.80
29547;DHT22;40782;47.264;11.330;2023-03-14T08:08:39;6.40;55.70
29547;DHT22;40782;47.264;11.330;2023-03-14T08:11:08;6.40;55.90
29547;DHT22;40782;47.264;11.330;2023-03-14T08:13:35;6.40;41.00
29547;DHT22;40782;47.264;11.330;2023-03-14T08:16:02;6.50;42.70
29547;DHT22;40782;47.264;11.330;2023-03-14T08:18:29;6.50;23.90
29547;DHT22;40782;47.264;11.330;2023-03-14T08:20:57;6.50;28.00
29547;DHT22;40782;47.264;11.330;2023-03-14T08:23:24;6.50;28.70
29547;DHT22;40782;47.264;11.330;2023-03-14T08:25:51;6.40;32.30
29547;DHT22;40782;47.264;11.330;2023-03-14T08:28:19;6.50;53.50
29547;DHT22;40782;47.264;11.330;2023-03-14T08:30:46;6.60;70.20
29547;DHT22;40782;47.264;11.330;2023-03-14T08:33:13;6.60;46.50
29547;DHT22;40782;47.264;11.330;2023-03-14T08:35:41;6.50;30.10
29547;DHT22;40782;47.264;11.330;2023-03-14T08:38:08;6.50;29.50
29547;DHT22;40782;47.264;11.330;2023-03-14T08:40:35;6.50;31.70
29547;DHT22;40782;47.264;11.330;2023-03-14T08:43:02;6.50;21.50
29547;DHT22;40782;47.264;11.330;2023-03-14T08:45:31;6.50;20.40
29547;DHT22;40782;47.264;11.330;2023-03-14T08:47:58;6.50;17.90
29547;DHT22;40782;47.264;11.330;2023-03-14T08:50:25;6.50;3.20
29547;DHT22;40782;47.264;11.330;2023-03-14T08:52:52;6.50;1.00
29547;DHT22;40782;47.264;11.330;2023-03-14T08:55:19;6.50;1.00
29547;DHT22;40782;47.264;11.330;2023-03-14T08:57:46;6.50;1.00
29547;DHT22;40782;47.264;11.330;2023-03-14T09:00:13;6.50;1.00
29547;DHT22;40782;47.264;11.330;2023-03-14T09:02:42;6.50;1.00
29547;DHT22;40782;47.264;11.330;2023-03-14T09:05:09;6.50;1.00
29547;DHT22;40782;47.264;11.330;2023-03-14T09:07:37;6.50;1.00
29547;DHT22;40782;47.264;11.330;2023-03-14T09:10:05;6.50;1.00
29547;DHT22;40782;47.264;11.330;2023-03-14T09:12:32;6.40;1.00
29547;DHT22;40782;47.264;11.330;2023-03-14T09:14:59;6.40;1.00
29547;DHT22;40782;47.264;11.330;2023-03-14T09:17:26;6.40;1.00
29547;DHT22;40782;47.264;11.330;2023-03-14T09:19:55;6.40;1.00
29547;DHT22;40782;47.264;11.330;2023-03-14T09:22:22;6.30;1.00
29547;DHT22;40782;47.264;11.330;2023-03-14T09:24:52;6.30;1.00
29547;DHT22;40782;47.264;11.330;2023-03-14T09:27:20;6.30;1.00
29547;DHT22;40782;47.264;11.330;2023-03-14T09:29:48;6.30;1.00
29547;DHT22;40782;47.264;11.330;2023-03-14T09:32:16;6.20;1.00
29547;DHT22;40782;47.264;11.330;2023-03-14T09:34:43;6.30;1.00
29547;DHT22;40782;47.264;11.330;2023-03-14T09:37:11;6.30;1.00
29547;DHT22;40782;47.264;11.330;2023-03-14T09:39:38;6.30;1.00
29547;DHT22;40782;47.264;11.330;2023-03-14T09:42:06;6.40;1.00
29547;DHT22;40782;47.264;11.330;2023-03-14T09:44:34;6.30;1.00
29547;DHT22;40782;47.264;11.330;2023-03-14T09:47:03;6.30;1.00
29547;DHT22;40782;47.264;11.330;2023-03-14T09:49:32;6.30;1.00
29547;DHT22;40782;47.264;11.330;2023-03-14T09:52:01;6.30;1.00
29547;DHT22;40782;47.264;11.330;2023-03-14T09:54:32;6.50;1.00
29547;DHT22;40782;47.264;11.330;2023-03-14T09:57:02;6.60;1.00
29547;DHT22;40782;47.264;11.330;2023-03-14T09:59:29;6.70;1.00
29547;DHT22;40782;47.264;11.330;2023-03-14T10:01:58;6.70;1.00
29547;DHT22;40782;47.264;11.330;2023-03-14T10:04:29;6.80;1.00
29547;DHT22;40782;47.264;11.330;2023-03-14T10:06:58;6.90;1.00
29547;DHT22;40782;47.264;11.330;2023-03-14T10:09:24;7.10;1.00
29547;DHT22;40782;47.264;11.330;2023-03-14T10:11:56;7.10;1.00
29547;DHT22;40782;47.264;11.330;2023-03-14T10:14:30;7.30;1.00
29547;DHT22;40782;47.264;11.330;2023-03-14T10:17:04;7.50;1.00
29547;DHT22;40782;47.264;11.330;2023-03-14T10:19:31;7.70;99.90
29547;DHT22;40782;47.264;11.330;2023-03-14T10:22:01;7.90;99.90
29547;DHT22;40782;47.264;11.330;2023-03-14T10:24:29;8.20;1.00
29547;DHT22;40782;47.264;11.330;2023-03-14T10:26:59;8.50;99.90
29547;DHT22;40782;47.264;11.330;2023-03-14T10:29:28;8.90;1.00
29547;DHT22;40782;47.264;11.330;2023-03-14T10:31:57;9.00;30.00
29547;DHT22;40782;47.264;11.330;2023-03-14T10:34:27;9.20;1.00
29547;DHT22;40782;47.264;11.330;2023-03-14T10:36:55;9.50;1.00
29547;DHT22;40782;47.264;11.330;2023-03-14T10:39:37;9.70;99.90
29547;DHT22;40782;47.264;11.330;2023-03-14T10:42:12;10.00;1.00
29547;DHT22;40782;47.264;11.330;2023-03-14T10:44:40;10.20;1.00
29547;DHT22;40782;47.264;11.330;2023-03-14T10:47:12;10.10;99.90
29547;DHT22;40782;47.264;11.330;2023-03-14T10:49:42;10.30;1.00
29547;DHT22;40782;47.264;11.330;2023-03-14T10:52:14;10.40;56.20
29547;DHT22;40782;47.264;11.330;2023-03-14T10:54:42;10.60;1.00
29547;DHT22;40782;47.264;11.330;2023-03-14T10:57:14;10.80;1.00
29547;DHT22;40782;47.264;11.330;2023-03-14T10:59:41;10.80;1.00
29547;DHT22;40782;47.264;11.330;2023-03-14T11:02:24;10.70;92.50
29547;DHT22;40782;47.264;11.330;2023-03-14T11:04:57;10.70;17.90
29547;DHT22;40782;47.264;11.330;2023-03-14T11:07:30;10.60;92.00
29547;DHT22;40782;47.264;11.330;2023-03-14T11:10:01;10.80;99.90
29547;DHT22;40782;47.264;11.330;2023-03-14T11:12:34;11.00;70.40
29547;DHT22;40782;47.264;11.330;2023-03-14T11:15:04;11.40;1.00
29547;DHT22;40782;47.264;11.330;2023-03-14T11:17:34;11.80;1.00
29547;DHT22;40782;47.264;11.330;2023-03-14T11:20:09;11.90;1.00
29547;DHT22;40782;47.264;11.330;2023-03-14T11:22:44;12.10;1.00
29547;DHT22;40782;47.264;11.330;2023-03-14T11:25:16;12.30;1.00
29547;DHT22;40782;47.264;11.330;2023-03-14T11:27:47;12.20;1.00
29547;DHT22;40782;47.264;11.330;2023-03-14T11:30:17;12.10;1.00
29547;DHT22;40782;47.264;11.330;2023-03-14T11:32:45;12.40;1.00
29547;DHT22;40782;47.264;11.330;2023-03-14T11:35:17;12.40;1.00
29547;DHT22;40782;47.264;11.330;2023-03-14T11:37:46;12.50;1.00
29547;DHT22;40782;47.264;11.330;2023-03-14T11:40:14;12.50;1.00
29547;DHT22;40782;47.264;11.330;2023-03-14T11:42:44;12.80;1.00
29547;DHT22;40782;47.264;11.330;2023-03-14T11:45:16;12.80;1.00
29547;DHT22;40782;47.264;11.330;2023-03-14T11:47:44;12.70;1.00
29547;DHT22;40782;47.264;11.330;2023-03-14T11:50:14;12.50;1.00
29547;DHT22;40782;47.264;11.330;2023-03-14T11:52:44;12.40;1.00
29547;DHT22;40782;47.264;11.330;2023-03-14T11:55:16;12.30;1.00
29547;DHT22;40782;47.264;11.330;2023-03-14T11:57:44;12.40;1.00
29547;DHT22;40782;47.264;11.330;2023-03-14T12:00:16;12.30;1.00
29547;DHT22;40782;47.264;11.330;2023-03-14T12:02:45;12.20;1.00
29547;DHT22;40782;47.264;11.330;2023-03-14T12:05:30;12.20;1.00
29547;DHT22;40782;47.264;11.330;2023-03-14T12:10:45;12.30;1.00
29547;DHT22;40782;47.264;11.330;2023-03-14T12:13:13;12.10;1.00
29547;DHT22;40782;47.264;11.330;2023-03-14T12:15:47;12.10;1.00
29547;DHT22;40782;47.264;11.330;2023-03-14T12:18:18;11.90;1.00
29547;DHT22;40782;47.264;11.330;2023-03-14T12:20:50;11.90;1.00
29547;DHT22;40782;47.264;11.330;2023-03-14T12:23:18;11.90;1.00
29547;DHT22;40782;47.264;11.330;2023-03-14T12:25:45;11.70;1.00
29547;DHT22;40782;47.264;11.330;2023-03-14T12:28:19;11.80;1.00
29547;DHT22;40782;47.264;11.330;2023-03-14T12:30:47;11.90;1.00
29547;DHT22;40782;47.264;11.330;2023-03-14T12:33:21;11.80;1.00
29547;DHT22;40782;47.264;11.330;2023-03-14T12:35:53;11.90;1.00
29547;DHT22;40782;47.264;11.330;2023-03-14T12:38:26;12.10;1.00
29547;DHT22;40782;47.264;11.330;2023-03-14T12:40:57;12.00;1.00
29547;DHT22;40782;47.264;11.330;2023-03-14T12:43:27;12.40;1.00
29547;DHT22;40782;47.264;11.330;2023-03-14T12:46:09;12.90;1.00
29547;DHT22;40782;47.264;11.330;2023-03-14T12:48:41;13.20;1.00
29547;DHT22;40782;47.264;11.330;2023-03-14T12:51:12;13.60;1.00
29547;DHT22;40782;47.264;11.330;2023-03-14T12:56:23;13.50;1.00
29547;DHT22;40782;47.264;11.330;2023-03-14T12:58:57;13.50;1.00
29547;DHT22;40782;47.264;11.330;2023-03-14T13:01:29;13.60;99.90
29547;DHT22;40782;47.264;11.330;2023-03-14T13:03:56;13.30;1.00
29547;DHT22;40782;47.264;11.330;2023-03-14T13:12:00;12.60;1.00
29547;DHT22;40782;47.264;11.330;2023-03-14T13:14:29;12.60;1.00
29547;DHT22;40782;47.264;11.330;2023-03-14T13:17:00;12.80;99.90
29547;DHT22;40782;47.264;11.330;2023-03-14T13:19:28;12.70;99.90
29547;DHT22;40782;47.264;11.330;2023-03-14T13:21:56;12.70;99.90
29547;DHT22;40782;47.264;11.330;2023-03-14T13:24:23;12.50;1.00
29547;DHT22;40782;47.264;11.330;2023-03-14T13:26:51;12.40;1.00
29547;DHT22;40782;47.264;11.330;2023-03-14T13:29:20;12.40;1.00
29547;DHT22;40782;47.264;11.330;2023-03-14T13:31:48;12.30;1.00
29547;DHT22;40782;47.264;11.330;2023-03-14T13:34:17;12.40;1.00
29547;DHT22;40782;47.264;11.330;2023-03-14T13:36:44;12.30;1.00
29547;DHT22;40782;47.264;11.330;2023-03-14T13:39:18;12.40;1.00
29547;DHT22;40782;47.264;11.330;2023-03-14T13:41:47;12.40;1.00
29547;DHT22;40782;47.264;11.330;2023-03-14T13:44:15;12.30;1.00
29547;DHT22;40782;47.264;11.330;2023-03-14T13:46:44;12.20;1.00
29547;DHT22;40782;47.264;11.330;2023-03-14T13:49:12;12.20;1.00
29547;DHT22;40782;47.264;11.330;2023-03-14T13:51:45;12.10;1.00
29547;DHT22;40782;47.264;11.330;2023-03-14T13:54:13;12.00;1.00
29547;DHT22;40782;47.264;11.330;2023-03-14T13:56:40;11.90;1.00
29547;DHT22;40782;47.264;11.330;2023-03-14T13:59:20;11.70;1.00
29547;DHT22;40782;47.264;11.330;2023-03-14T14:01:47;11.50;1.00
29547;DHT22;40782;47.264;11.330;2023-03-14T14:04:15;11.50;1.00
29547;DHT22;40782;47.264;11.330;2023-03-14T14:06:46;11.50;1.00
29547;DHT22;40782;47.264;11.330;2023-03-14T14:09:14;11.40;1.00
29547;DHT22;40782;47.264;11.330;2023-03-14T14:11:43;11.50;1.00
29547;DHT22;40782;47.264;11.330;2023-03-14T14:14:12;11.40;1.00
29547;DHT22;40782;47.264;11.330;2023-03-14T14:16:40;11.40;1.00
29547;DHT22;40782;47.264;11.330;2023-03-14T14:19:08;11.50;1.00
29547;DHT22;40782;47.264;11.330;2023-03-14T14:21:35;11.60;1.00
29547;DHT22;40782;47.264;11.330;2023-03-14T14:24:04;11.60;1.00
29547;DHT22;40782;47.264;11.330;2023-03-14T14:26:31;11.60;1.00
29547;DHT22;40782;47.264;11.330;2023-03-14T14:28:59;11.60;1.00
29547;DHT22;40782;47.264;11.330;2023-03-14T14:31:29;11.70;1.00
29547;DHT22;40782;47.264;11.330;2023-03-14T14:33:57;11.60;1.00
29547;DHT22;40782;47.264;11.330;2023-03-14T14:36:25;11.60;1.00
29547;DHT22;40782;47.264;11.330;2023-03-14T14:38:54;11.50;1.00
29547;DHT22;40782;47.264;11.330;2023-03-14T14:41:23;11.20;1.00
29547;DHT22;40782;47.264;11.330;2023-03-14T14:43:52;10.90;1.00
29547;DHT22;40782;47.264;11.330;2023-03-14T14:46:19;10.80;1.00
29547;DHT22;40782;47.264;11.330;2023-03-14T14:48:47;10.60;99.90
29547;DHT22;40782;47.264;11.330;2023-03-14T14:51:23;10.50;99.90
29547;DHT22;40782;47.264;11.330;2023-03-14T14:53:59;10.40;1.00
29547;DHT22;40782;47.264;11.330;2023-03-14T14:56:27;10.50;1.00
29547;DHT22;40782;47.264;11.330;2023-03-14T14:58:56;10.50;99.90
29547;DHT22;40782;47.264;11.330;2023-03-14T15:01:24;10.50;99.90
29547;DHT22;40782;47.264;11.330;2023-03-14T15:03:52;10.30;16.00
29547;DHT22;40782;47.264;11.330;2023-03-14T15:06:20;10.10;99.90
29547;DHT22;40782;47.264;11.330;2023-03-14T15:08:48;10.20;1.00
29547;DHT22;40782;47.264;11.330;2023-03-14T15:11:15;10.30;1.00
29547;DHT22;40782;47.264;11.330;2023-03-14T15:13:44;10.80;1.00
29547;DHT22;40782;47.264;11.330;2023-03-14T15:16:11;11.50;1.00
29547;DHT22;40782;47.264;11.330;2023-03-14T15:18:39;11.80;99.90
29547;DHT22;40782;47.264;11.330;2023-03-14T15:21:08;12.20;99.90
29547;DHT22;40782;47.264;11.330;2023-03-14T15:23:35;12.70;1.00
29547;DHT22;40782;47.264;11.330;2023-03-14T15:26:02;13.00;1.00
29547;DHT22;40782;47.264;11.330;2023-03-14T15:28:29;12.90;1.00
29547;DHT22;40782;47.264;11.330;2023-03-14T15:30:58;12.60;1.00
29547;DHT22;40782;47.264;11.330;2023-03-14T15:33:26;12.30;1.00
29547;DHT22;40782;47.264;11.330;2023-03-14T15:35:53;12.20;1.00
29547;DHT22;40782;47.264;11.330;2023-03-14T15:38:20;11.90;1.00
29547;DHT22;40782;47.264;11.330;2023-03-14T15:40:48;11.90;1.00
29547;DHT22;40782;47.264;11.330;2023-03-14T15:43:15;11.90;1.00
29547;DHT22;40782;47.264;11.330;2023-03-14T15:45:43;11.60;1.00
29547;DHT22;40782;47.264;11.330;2023-03-14T15:48:14;11.60;1.00